Time;durP1;ratioP1;P1;durP2;ratioP2;P2;SDS_P1;SDS_P2;PMS_P1;PMS_P2;Temp;Humidity;BMP_temperature;BMP_pressure;BME280_temperature;BME280_humidity;BME280_pressure;Samples;Min_cycle;Max_cycle;Signal;HPM_P1;HPM_P2
2022/12/04 00:02:06;;;;;;;60.20;18.88;;;;;;;;;;5027554;28;20052;-57
2022/12/04 00:04:31;;;;;;;66.77;19.70;;;;;;;;;;5029591;28;20775;-57
2022/12/04 00:06:56;;;;;;;61.83;19.15;;;;;;;;;;5026083;28;20025;-58
2022/12/04 00:09:22;;;;;;;57.87;19.67;;;;;;;;;;5029250;28;20538;-57
2022/12/04 00:11:47;;;;;;;60.60;19.98;;;;;;;;;;5027698;28;20077;-57
2022/12/04 00:14:12;;;;;;;49.63;16.80;;;;;;;;;;5028932;28;20025;-58
2022/12/04 00:16:37;;;;;;;59.90;19.17;;;;;;;;;;5028543;28;20037;-57
2022/12/04 00:19:02;;;;;;;42.47;15.70;;;;;;;;;;5027659;28;20030;-57
2022/12/04 00:21:28;;;;;;;51.15;18.15;;;;;;;;;;5024383;28;20018;-57
2022/12/04 00:23:53;;;;;;;50.47;17.93;;;;;;;;;;5029425;28;20045;-58
2022/12/04 00:26:22;;;;;;;41.83;15.48;;;;;;;;;;5028966;28;20037;-58
2022/12/04 00:28:47;;;;;;;44.92;16.95;;;;;;;;;;5027862;28;20472;-57
2022/12/04 00:31:14;;;;;;;58.38;19.88;;;;;;;;;;5027652;28;20068;-57
2022/12/04 00:33:39;;;;;;;53.65;17.83;;;;;;;;;;5028699;28;20022;-57
2022/12/04 00:36:06;;;;;;;59.47;19.83;;;;;;;;;;5027746;28;20508;-57
2022/12/04 00:38:31;;;;;;;47.05;16.55;;;;;;;;;;5024164;28;20017;-58
2022/12/04 00:40:56;;;;;;;57.63;18.30;;;;;;;;;;5030835;28;20029;-59
2022/12/04 00:43:22;;;;;;;61.70;19.23;;;;;;;;;;5031763;28;20466;-58
2022/12/04 00:45:48;;;;;;;54.78;18.17;;;;;;;;;;5031312;28;20106;-58
2022/12/04 00:48:13;;;;;;;45.55;15.95;;;;;;;;;;5029731;28;20030;-59
2022/12/04 00:50:38;;;;;;;53.88;18.17;;;;;;;;;;5033412;28;20033;-58
2022/12/04 00:53:03;;;;;;;49.15;17.05;;;;;;;;;;5031746;28;20388;-58
2022/12/04 00:55:28;;;;;;;57.43;19.60;;;;;;;;;;5030285;28;20022;-58
2022/12/04 00:57:54;;;;;;;47.33;16.83;;;;;;;;;;5028753;28;20109;-58
2022/12/04 01:00:19;;;;;;;46.30;16.23;;;;;;;;;;5028399;28;20024;-56
2022/12/04 01:02:44;;;;;;;43.77;15.10;;;;;;;;;;5030648;28;20195;-56
2022/12/04 01:05:10;;;;;;;45.83;15.15;;;;;;;;;;5028850;28;20040;-58
2022/12/04 01:07:35;;;;;;;50.53;16.88;;;;;;;;;;5016303;28;20040;-57
2022/12/04 01:10:00;;;;;;;43.63;16.30;;;;;;;;;;5030214;28;20084;-57
2022/12/04 01:12:26;;;;;;;52.90;17.40;;;;;;;;;;5029711;28;20056;-57
2022/12/04 01:14:51;;;;;;;46.93;16.70;;;;;;;;;;5030528;28;20049;-56
2022/12/04 01:17:16;;;;;;;48.40;17.33;;;;;;;;;;5032195;28;20026;-57
2022/12/04 01:19:41;;;;;;;41.80;15.43;;;;;;;;;;5032408;28;20026;-58
2022/12/04 01:22:06;;;;;;;53.77;19.17;;;;;;;;;;5026161;28;20049;-58
2022/12/04 01:24:31;;;;;;;51.57;16.93;;;;;;;;;;5031526;28;20083;-58
2022/12/04 01:26:57;;;;;;;47.72;17.05;;;;;;;;;;5029945;28;20220;-57
2022/12/04 01:29:22;;;;;;;55.97;18.40;;;;;;;;;;5031354;28;20084;-57
2022/12/04 01:31:47;;;;;;;59.77;19.13;;;;;;;;;;5026684;28;20689;-57
2022/12/04 01:34:12;;;;;;;50.40;18.27;;;;;;;;;;5032108;28;20025;-58
2022/12/04 01:36:37;;;;;;;47.60;16.90;;;;;;;;;;5027820;28;20044;-58
2022/12/04 01:39:02;;;;;;;52.90;18.17;;;;;;;;;;5029001;28;21010;-56
2022/12/04 01:41:29;;;;;;;41.97;16.10;;;;;;;;;;5025152;28;20025;-57
2022/12/04 01:44:12;;;;;;;47.88;17.45;;;;;;;;;;5029734;28;20033;-57
2022/12/04 01:46:37;;;;;;;42.88;15.38;;;;;;;;;;5027376;28;20033;-57
2022/12/04 01:49:03;;;;;;;48.15;16.23;;;;;;;;;;5030529;28;20132;-58
2022/12/04 01:51:38;;;;;;;43.53;16.48;;;;;;;;;;5030090;28;20025;-57
2022/12/04 01:54:05;;;;;;;51.38;17.55;;;;;;;;;;5028361;28;20029;-57
2022/12/04 01:56:30;;;;;;;;;;;;;;;;;;5027147;28;20036;-57
2022/12/04 01:58:57;;;;;;;47.13;15.75;;;;;;;;;;5031882;28;19909;-57
2022/12/04 02:01:25;;;;;;;52.05;16.35;;;;;;;;;;5028325;28;20127;-58
2022/12/04 02:03:50;;;;;;;42.08;15.73;;;;;;;;;;5021850;28;20024;-57
2022/12/04 02:06:15;;;;;;;50.43;17.47;;;;;;;;;;5027340;28;20029;-57
2022/12/04 02:08:40;;;;;;;51.63;17.87;;;;;;;;;;5030262;28;20358;-58
2022/12/04 02:11:19;;;;;;;47.33;16.53;;;;;;;;;;5030543;28;20039;-59
2022/12/04 02:13:51;;;;;;;53.85;18.42;;;;;;;;;;5027614;28;20045;-57
2022/12/04 02:16:35;;;;;;;54.47;18.23;;;;;;;;;;5026901;28;20499;-58
2022/12/04 02:19:02;;;;;;;47.30;16.92;;;;;;;;;;5029344;28;20410;-57
2022/12/04 02:21:32;;;;;;;49.20;17.50;;;;;;;;;;5029955;28;20022;-57
2022/12/04 02:24:16;;;;;;;55.30;19.25;;;;;;;;;;5027407;28;20099;-57
2022/12/04 02:26:51;;;;;;;60.47;19.45;;;;;;;;;;5037783;28;20029;-57
2022/12/04 02:29:31;;;;;;;51.65;19.70;;;;;;;;;;5029139;28;20029;-57
2022/12/04 02:32:22;;;;;;;52.53;17.75;;;;;;;;;;5029379;28;20033;-58
2022/12/04 02:34:58;;;;;;;60.22;19.42;;;;;;;;;;5017197;28;20033;-57
2022/12/04 02:37:32;;;;;;;48.05;17.02;;;;;;;;;;5028732;28;20017;-57
2022/12/04 02:40:05;;;;;;;63.38;19.90;;;;;;;;;;5029496;28;20482;-58
2022/12/04 02:42:39;;;;;;;55.58;17.88;;;;;;;;;;5027603;28;20435;-57
2022/12/04 02:45:09;;;;;;;57.05;20.17;;;;;;;;;;5027760;28;20025;-57
2022/12/04 02:47:35;;;;;;;51.33;19.23;;;;;;;;;;5027752;28;20021;-58
2022/12/04 02:50:04;;;;;;;55.78;19.92;;;;;;;;;;5028516;28;20084;-57
2022/12/04 02:52:41;;;;;;;48.38;18.35;;;;;;;;;;5027403;28;20025;-58
2022/12/04 02:55:10;;;;;;;48.65;17.10;;;;;;;;;;5029407;28;20555;-59
2022/12/04 02:57:37;;;;;;;49.15;18.10;;;;;;;;;;5029387;28;20036;-58
2022/12/04 03:00:04;;;;;;;57.33;20.08;;;;;;;;;;5030268;28;20017;-58
2022/12/04 03:02:32;;;;;;;58.13;20.02;;;;;;;;;;5029282;28;20028;-57
2022/12/04 03:04:59;;;;;;;53.33;18.73;;;;;;;;;;5028426;28;20029;-57
2022/12/04 03:07:24;;;;;;;;;;;;;;;;;;5024526;28;20057;-57
2022/12/04 03:09:52;;;;;;;48.95;17.23;;;;;;;;;;5030010;28;19943;-58
2022/12/04 03:12:20;;;;;;;57.28;20.20;;;;;;;;;;5025649;28;20045;-57
2022/12/04 03:14:49;;;;;;;51.50;16.70;;;;;;;;;;5027162;28;20030;-57
2022/12/04 03:17:21;;;;;;;63.10;20.30;;;;;;;;;;5029584;28;20025;-57
2022/12/04 03:19:52;;;;;;;60.08;20.98;;;;;;;;;;5025289;28;20024;-57
2022/12/04 03:22:19;;;;;;;51.75;18.60;;;;;;;;;;5013506;28;20029;-58
2022/12/04 03:24:46;;;;;;;55.72;19.25;;;;;;;;;;5029527;28;20412;-57
2022/12/04 03:27:18;;;;;;;54.13;18.48;;;;;;;;;;5029845;28;20048;-58
2022/12/04 03:29:51;;;;;;;52.40;19.33;;;;;;;;;;5030035;28;20040;-56
2022/12/04 03:32:39;;;;;;;51.13;17.67;;;;;;;;;;5026664;28;20030;-58
2022/12/04 03:35:07;;;;;;;51.92;17.35;;;;;;;;;;5012553;28;21531;-58
2022/12/04 03:37:35;;;;;;;46.55;18.45;;;;;;;;;;5027934;28;20021;-57
2022/12/04 03:40:21;;;;;;;49.28;17.67;;;;;;;;;;5027717;28;20026;-57
2022/12/04 03:42:48;;;;;;;56.20;20.23;;;;;;;;;;5020481;28;20030;-57
2022/12/04 03:45:18;;;;;;;48.17;17.45;;;;;;;;;;5029947;28;20030;-56
2022/12/04 03:47:59;;;;;;;49.63;19.08;;;;;;;;;;5027192;28;20445;-57
2022/12/04 03:50:25;;;;;;;45.97;16.98;;;;;;;;;;5026303;28;20041;-57
2022/12/04 03:53:03;;;;;;;54.83;19.40;;;;;;;;;;5029859;28;20084;-57
2022/12/04 03:55:36;;;;;;;55.33;19.17;;;;;;;;;;5028614;28;20029;-57
2022/12/04 03:58:04;;;;;;;44.80;17.23;;;;;;;;;;5022164;28;20024;-57
2022/12/04 04:00:31;;;;;;;51.25;19.38;;;;;;;;;;5027413;28;20021;-57
2022/12/04 04:03:06;;;;;;;49.45;17.88;;;;;;;;;;5027945;28;20056;-58
2022/12/04 04:05:32;;;;;;;46.22;16.70;;;;;;;;;;5029362;28;20109;-58
2022/12/04 04:08:24;;;;;;;50.50;18.58;;;;;;;;;;5027318;28;20040;-57
2022/12/04 04:10:46;;;;;;;50.92;18.92;;;;;;;;;;5029064;28;20033;-58
2022/12/04 04:24:27;;;;;;;49.03;18.92;;;;;;;;;;5033123;28;20604;-57
2022/12/04 04:26:53;;;;;;;54.10;20.08;;;;;;;;;;5030713;28;20476;-57
2022/12/04 04:29:19;;;;;;;50.45;18.10;;;;;;;;;;5028002;28;20144;-57
2022/12/04 04:31:47;;;;;;;48.10;17.53;;;;;;;;;;5032574;28;20018;-57
2022/12/04 04:34:12;;;;;;;50.70;18.65;;;;;;;;;;5033267;28;20104;-57
2022/12/04 04:36:40;;;;;;;55.33;19.70;;;;;;;;;;5032249;28;20120;-57
2022/12/04 04:39:08;;;;;;;59.10;20.52;;;;;;;;;;5032340;28;20033;-58
2022/12/04 04:41:43;;;;;;;50.67;18.17;;;;;;;;;;5029765;28;20028;-57
2022/12/04 04:44:16;;;;;;;43.70;16.88;;;;;;;;;;5032976;28;20074;-58
2022/12/04 04:46:45;;;;;;;44.17;17.15;;;;;;;;;;5031504;28;20029;-58
2022/12/04 04:49:12;;;;;;;47.88;18.48;;;;;;;;;;5032951;28;20097;-58
2022/12/04 04:51:38;;;;;;;55.53;20.10;;;;;;;;;;5030749;28;20390;-58
2022/12/04 04:54:05;;;;;;;54.80;19.65;;;;;;;;;;5031303;28;20119;-57
2022/12/04 04:56:30;;;;;;;50.47;17.88;;;;;;;;;;5031863;28;20029;-57
2022/12/04 04:58:55;;;;;;;45.77;18.27;;;;;;;;;;5031933;28;20506;-57
2022/12/04 05:01:26;;;;;;;58.67;20.90;;;;;;;;;;5030256;28;20024;-56
2022/12/04 05:03:51;;;;;;;43.17;17.00;;;;;;;;;;5027758;28;20025;-57
2022/12/04 05:06:16;;;;;;;44.30;17.17;;;;;;;;;;5030988;28;20025;-57
2022/12/04 05:08:43;;;;;;;46.93;17.73;;;;;;;;;;5032468;28;20025;-57
2022/12/04 05:11:10;;;;;;;53.42;19.38;;;;;;;;;;5030160;28;20033;-58
2022/12/04 05:13:35;;;;;;;53.42;19.48;;;;;;;;;;5031190;28;20463;-58
2022/12/04 05:16:02;;;;;;;50.73;18.70;;;;;;;;;;5027501;28;20132;-58
2022/12/04 05:18:27;;;;;;;42.85;16.70;;;;;;;;;;5032596;28;20455;-58
2022/12/04 05:20:52;;;;;;;57.53;21.57;;;;;;;;;;5030217;28;20024;-58
2022/12/04 05:23:18;;;;;;;46.97;17.87;;;;;;;;;;5032428;28;20096;-60
2022/12/04 05:25:44;;;;;;;50.17;18.15;;;;;;;;;;5030300;28;20029;-59
2022/12/04 05:28:09;;;;;;;47.17;17.83;;;;;;;;;;5032394;28;20492;-58
2022/12/04 05:30:34;;;;;;;50.33;19.63;;;;;;;;;;5029828;28;20033;-59
2022/12/04 05:33:00;;;;;;;53.80;20.83;;;;;;;;;;5030664;28;20108;-58
2022/12/04 05:35:25;;;;;;;45.13;18.27;;;;;;;;;;5030011;28;20040;-58
2022/12/04 05:37:50;;;;;;;53.90;19.95;;;;;;;;;;5029388;28;20472;-58
2022/12/04 05:40:15;;;;;;;45.70;17.37;;;;;;;;;;5029816;28;20033;-59
2022/12/04 05:42:41;;;;;;;49.92;19.80;;;;;;;;;;5031090;28;20029;-59
2022/12/04 05:45:06;;;;;;;44.20;16.98;;;;;;;;;;5030247;28;20032;-59
2022/12/04 05:47:36;;;;;;;45.97;17.80;;;;;;;;;;5030846;28;20029;-59
2022/12/04 05:50:01;;;;;;;45.88;18.88;;;;;;;;;;5029623;28;20110;-59
2022/12/04 05:52:26;;;;;;;45.80;17.70;;;;;;;;;;5031019;28;20144;-58
2022/12/04 05:54:51;;;;;;;45.65;17.73;;;;;;;;;;5029898;28;20071;-57
2022/12/04 05:57:16;;;;;;;47.00;18.47;;;;;;;;;;5030762;28;20032;-58
2022/12/04 05:59:41;;;;;;;42.35;17.52;;;;;;;;;;5030430;28;20013;-59
2022/12/04 06:02:07;;;;;;;53.65;21.65;;;;;;;;;;5031118;28;20028;-58
2022/12/04 06:04:32;;;;;;;61.93;23.57;;;;;;;;;;5028997;28;20050;-58
2022/12/04 06:06:57;;;;;;;59.17;21.80;;;;;;;;;;5030002;28;20099;-58
2022/12/04 06:09:22;;;;;;;48.90;18.92;;;;;;;;;;5026975;28;20017;-58
2022/12/04 06:11:47;;;;;;;52.57;19.37;;;;;;;;;;5029741;28;20435;-58
2022/12/04 06:14:13;;;;;;;56.57;21.17;;;;;;;;;;5026199;28;20091;-58
2022/12/04 06:16:40;;;;;;;50.33;20.20;;;;;;;;;;5025500;28;20117;-58
2022/12/04 06:19:06;;;;;;;50.88;19.70;;;;;;;;;;5027482;28;20030;-57
2022/12/04 06:21:32;;;;;;;44.78;18.83;;;;;;;;;;5028523;28;20021;-57
2022/12/04 06:23:57;;;;;;;57.20;21.73;;;;;;;;;;5030087;28;20040;-58
2022/12/04 06:26:22;;;;;;;57.67;21.83;;;;;;;;;;5031065;28;20021;-59
2022/12/04 06:28:48;;;;;;;54.33;21.30;;;;;;;;;;5031234;28;20041;-57
2022/12/04 06:31:15;;;;;;;51.53;19.70;;;;;;;;;;5033950;28;20152;-57
2022/12/04 06:33:40;;;;;;;50.15;19.77;;;;;;;;;;5040030;28;20028;-57
2022/12/04 06:36:07;;;;;;;56.97;20.75;;;;;;;;;;5041708;28;20115;-57
2022/12/04 06:38:32;;;;;;;58.95;22.33;;;;;;;;;;5032849;28;20498;-57
2022/12/04 06:40:58;;;;;;;52.20;18.80;;;;;;;;;;5033605;28;20041;-57
2022/12/04 06:43:23;;;;;;;52.10;21.60;;;;;;;;;;5038721;28;20444;-57
2022/12/04 06:45:48;;;;;;;59.33;22.67;;;;;;;;;;5028483;28;20026;-57
2022/12/04 06:48:13;;;;;;;48.13;18.58;;;;;;;;;;5034406;28;20033;-58
2022/12/04 06:50:39;;;;;;;54.30;20.43;;;;;;;;;;5029478;28;20048;-58
2022/12/04 06:53:04;;;;;;;49.85;19.52;;;;;;;;;;5029764;28;20025;-58
2022/12/04 06:55:29;;;;;;;57.40;21.73;;;;;;;;;;5030246;28;20059;-58
2022/12/04 06:57:54;;;;;;;51.70;19.92;;;;;;;;;;5023553;28;20013;-59
2022/12/04 07:00:20;;;;;;;47.77;18.97;;;;;;;;;;5029066;28;20045;-58
2022/12/04 07:02:45;;;;;;;52.00;21.10;;;;;;;;;;5024844;28;20467;-59
2022/12/04 07:05:10;;;;;;;46.27;19.67;;;;;;;;;;5029022;28;20469;-58
2022/12/04 07:07:35;;;;;;;59.00;21.97;;;;;;;;;;5030478;28;20025;-58
2022/12/04 07:10:01;;;;;;;59.80;23.23;;;;;;;;;;5030183;28;20146;-59
2022/12/04 07:12:26;;;;;;;67.15;24.80;;;;;;;;;;5026738;28;20052;-58
2022/12/04 07:14:51;;;;;;;60.53;23.07;;;;;;;;;;5026109;28;20017;-58
2022/12/04 07:17:17;;;;;;;61.50;23.10;;;;;;;;;;5027784;28;20049;-58
2022/12/04 07:19:42;;;;;;;66.47;23.77;;;;;;;;;;5030093;28;20542;-57
2022/12/04 07:22:07;;;;;;;57.87;22.17;;;;;;;;;;5024953;28;20201;-58
2022/12/04 07:24:33;;;;;;;50.17;20.85;;;;;;;;;;5021569;28;20543;-58
2022/12/04 07:26:58;;;;;;;56.97;21.95;;;;;;;;;;5028275;28;20056;-58
2022/12/04 07:29:24;;;;;;;62.27;23.13;;;;;;;;;;5028956;28;20029;-58
2022/12/04 07:31:49;;;;;;;65.77;24.07;;;;;;;;;;5027369;28;20017;-58
2022/12/04 07:34:14;;;;;;;54.63;21.63;;;;;;;;;;5026562;28;20468;-58
2022/12/04 07:36:39;;;;;;;57.37;22.60;;;;;;;;;;5024930;28;20034;-57
2022/12/04 07:39:04;;;;;;;61.20;23.23;;;;;;;;;;5028719;28;20437;-58
2022/12/04 07:41:30;;;;;;;57.60;22.80;;;;;;;;;;5029127;28;20036;-58
2022/12/04 07:43:55;;;;;;;60.28;23.25;;;;;;;;;;5028412;28;20037;-58
2022/12/04 07:46:22;;;;;;;62.85;23.63;;;;;;;;;;5025392;28;20032;-57
2022/12/04 07:48:47;;;;;;;59.85;22.75;;;;;;;;;;5029732;28;20469;-59
2022/12/04 07:51:14;;;;;;;64.37;24.37;;;;;;;;;;5027373;28;20098;-58
2022/12/04 07:53:39;;;;;;;66.22;23.92;;;;;;;;;;5029479;28;20818;-58
2022/12/04 07:56:05;;;;;;;70.15;23.92;;;;;;;;;;5025233;28;20028;-57
2022/12/04 07:58:31;;;;;;;60.42;22.42;;;;;;;;;;5030192;28;20447;-58
2022/12/04 08:01:06;;;;;;;57.97;23.13;;;;;;;;;;5028912;28;20503;-58
2022/12/04 08:03:31;;;;;;;52.85;20.33;;;;;;;;;;5026709;28;20460;-58
2022/12/04 08:06:03;;;;;;;52.60;22.67;;;;;;;;;;5018796;28;20056;-60
2022/12/04 08:08:28;;;;;;;96.55;35.83;;;;;;;;;;5026918;28;20112;-58
2022/12/04 08:10:53;;;;;;;102.20;35.03;;;;;;;;;;5022911;28;20128;-59
2022/12/04 08:13:18;;;;;;;70.07;25.73;;;;;;;;;;5015861;28;20054;-59
2022/12/04 08:15:44;;;;;;;79.47;28.70;;;;;;;;;;5012168;28;20037;-59
2022/12/04 08:18:09;;;;;;;57.83;22.23;;;;;;;;;;5019004;28;20608;-58
2022/12/04 08:20:34;;;;;;;56.10;23.03;;;;;;;;;;5021030;28;20028;-59
2022/12/04 08:22:59;;;;;;;57.17;24.03;;;;;;;;;;5018624;28;20469;-58
2022/12/04 08:25:24;;;;;;;61.03;23.73;;;;;;;;;;5024005;28;20029;-58
2022/12/04 08:27:50;;;;;;;51.67;20.23;;;;;;;;;;5013038;28;20481;-57
2022/12/04 08:30:15;;;;;;;57.30;22.97;;;;;;;;;;5011626;28;20056;-57
2022/12/04 08:32:40;;;;;;;49.73;21.07;;;;;;;;;;5015099;28;20061;-58
2022/12/04 08:35:05;;;;;;;55.37;21.57;;;;;;;;;;5021999;28;20499;-59
2022/12/04 08:37:30;;;;;;;65.13;25.02;;;;;;;;;;5019437;28;20029;-59
2022/12/04 08:39:57;;;;;;;58.55;22.52;;;;;;;;;;5026185;28;20060;-57
2022/12/04 08:42:22;;;;;;;65.03;25.27;;;;;;;;;;5019427;28;20028;-58
2022/12/04 08:44:47;;;;;;;67.33;24.67;;;;;;;;;;5026908;28;20026;-58
2022/12/04 08:47:12;;;;;;;64.97;24.92;;;;;;;;;;5019745;28;20029;-58
2022/12/04 08:49:38;;;;;;;77.93;27.60;;;;;;;;;;5024828;28;20033;-58
2022/12/04 08:52:03;;;;;;;59.77;22.83;;;;;;;;;;5020496;28;20108;-58
2022/12/04 08:54:28;;;;;;;66.63;26.70;;;;;;;;;;5029069;28;20459;-58
2022/12/04 08:56:53;;;;;;;71.03;26.80;;;;;;;;;;5025997;28;20057;-58
2022/12/04 08:59:18;;;;;;;75.90;32.95;;;;;;;;;;5032953;28;20472;-58
2022/12/04 09:01:44;;;;;;;65.30;28.43;;;;;;;;;;5029811;28;20036;-59
2022/12/04 09:04:09;;;;;;;66.40;26.60;;;;;;;;;;5030321;28;20093;-58
2022/12/04 09:06:34;;;;;;;57.10;22.17;;;;;;;;;;5033008;28;20033;-58
2022/12/04 09:09:00;;;;;;;52.03;23.33;;;;;;;;;;5030196;28;20029;-58
2022/12/04 09:11:26;;;;;;;46.47;19.83;;;;;;;;;;5032154;28;20543;-58
2022/12/04 09:13:51;;;;;;;45.40;20.10;;;;;;;;;;5032741;28;20029;-59
2022/12/04 09:16:18;;;;;;;42.35;19.00;;;;;;;;;;5031846;28;20029;-59
2022/12/04 09:18:43;;;;;;;36.70;16.25;;;;;;;;;;5030906;28;20017;-58
2022/12/04 09:21:10;;;;;;;41.50;17.87;;;;;;;;;;5030651;28;20120;-58
2022/12/04 09:23:35;;;;;;;34.88;17.05;;;;;;;;;;5031180;28;20511;-56
2022/12/04 09:26:01;;;;;;;32.58;15.57;;;;;;;;;;5030096;28;20136;-58
2022/12/04 09:28:27;;;;;;;32.17;15.95;;;;;;;;;;5027617;28;20021;-57
2022/12/04 09:30:59;;;;;;;36.60;16.13;;;;;;;;;;5031892;28;20045;-58
2022/12/04 09:33:24;;;;;;;34.45;15.45;;;;;;;;;;5031251;28;20514;-57
2022/12/04 09:35:49;;;;;;;36.87;15.70;;;;;;;;;;5027238;28;20021;-58
2022/12/04 09:38:14;;;;;;;28.77;14.17;;;;;;;;;;5028669;28;20029;-59
2022/12/04 09:40:47;;;;;;;32.20;16.13;;;;;;;;;;5032633;28;20481;-57
2022/12/04 09:43:19;;;;;;;30.23;14.63;;;;;;;;;;5029824;28;20106;-57
2022/12/04 09:45:47;;;;;;;35.40;16.15;;;;;;;;;;5030827;28;20025;-57
2022/12/04 09:48:14;;;;;;;34.47;16.55;;;;;;;;;;5028625;28;20038;-56
2022/12/04 09:50:41;;;;;;;34.28;15.88;;;;;;;;;;5032087;28;20037;-57
2022/12/04 09:53:21;;;;;;;34.92;16.63;;;;;;;;;;5031075;28;20101;-57
2022/12/04 09:55:58;;;;;;;30.80;14.45;;;;;;;;;;5028448;28;20041;-58
2022/12/04 09:58:42;;;;;;;34.90;16.35;;;;;;;;;;5030956;28;20021;-56
2022/12/04 10:01:15;;;;;;;33.25;15.27;;;;;;;;;;5030929;28;20033;-57
2022/12/04 10:03:41;;;;;;;33.30;14.90;;;;;;;;;;5028320;28;20373;-57
2022/12/04 10:06:10;;;;;;;32.30;15.47;;;;;;;;;;5027645;28;20017;-58
2022/12/04 10:08:48;;;;;;;32.25;15.32;;;;;;;;;;5030653;28;20063;-57
2022/12/04 10:11:19;;;;;;;41.55;17.58;;;;;;;;;;5028049;28;20029;-58
2022/12/04 10:13:59;;;;;;;34.28;16.58;;;;;;;;;;5028445;28;20476;-58
2022/12/04 10:16:42;;;;;;;34.25;16.25;;;;;;;;;;5030434;28;20451;-59
2022/12/04 10:19:07;;;;;;;32.83;15.73;;;;;;;;;;5023196;28;20014;-58
2022/12/04 10:21:43;;;;;;;34.97;15.95;;;;;;;;;;5027213;28;20096;-58
2022/12/04 10:24:19;;;;;;;37.33;17.05;;;;;;;;;;5026258;28;20037;-57
2022/12/04 10:26:45;;;;;;;30.85;14.30;;;;;;;;;;5031120;28;20457;-58
2022/12/04 10:29:15;;;;;;;33.83;15.93;;;;;;;;;;5028783;28;20045;-57
2022/12/04 10:31:40;;;;;;;34.15;16.60;;;;;;;;;;5029015;28;20109;-59
2022/12/04 10:34:12;;;;;;;35.78;17.38;;;;;;;;;;5029106;28;20116;-57
2022/12/04 10:36:38;;;;;;;35.50;17.40;;;;;;;;;;5028026;28;20067;-58
2022/12/04 10:39:03;;;;;;;37.08;17.48;;;;;;;;;;5029235;28;20041;-58
2022/12/04 10:41:35;;;;;;;30.70;14.87;;;;;;;;;;5027714;28;20036;-57
2022/12/04 10:44:00;;;;;;;35.22;17.83;;;;;;;;;;5021442;28;20022;-58
2022/12/04 10:46:26;;;;;;;33.03;16.17;;;;;;;;;;5028178;28;20039;-58
2022/12/04 10:48:55;;;;;;;35.10;16.92;;;;;;;;;;5025669;28;20080;-57
2022/12/04 10:51:21;;;;;;;33.15;17.25;;;;;;;;;;5028314;28;20456;-57
2022/12/04 10:53:50;;;;;;;34.75;15.65;;;;;;;;;;5025421;28;20691;-58
2022/12/04 10:56:17;;;;;;;37.63;17.83;;;;;;;;;;5025072;28;20060;-58
2022/12/04 10:58:42;;;;;;;;;;;;;;;;;;5031834;28;20014;-57
2022/12/04 11:01:09;;;;;;;36.65;17.58;;;;;;;;;;5035064;28;19909;-58
2022/12/04 11:03:34;;;;;;;39.53;18.50;;;;;;;;;;5033959;28;20100;-58
2022/12/04 11:06:08;;;;;;;35.60;16.80;;;;;;;;;;5019552;28;20112;-58
2022/12/04 11:08:47;;;;;;;37.45;17.88;;;;;;;;;;5019045;28;20025;-57
2022/12/04 11:11:13;;;;;;;34.63;15.00;;;;;;;;;;5023491;28;20033;-57
2022/12/04 11:13:39;;;;;;;37.95;17.35;;;;;;;;;;5018733;28;20037;-58
2022/12/04 11:16:05;;;;;;;36.47;18.25;;;;;;;;;;5022925;28;20064;-57
2022/12/04 11:18:32;;;;;;;38.83;18.30;;;;;;;;;;5023359;28;20018;-58
2022/12/04 11:21:04;;;;;;;36.50;16.63;;;;;;;;;;5025642;28;20033;-57
2022/12/04 11:23:29;;;;;;;;;;;;;;;;;;5024669;28;20093;-57
2022/12/04 11:25:56;;;;;;;40.00;17.55;;;;;;;;;;5021867;28;19924;-57
2022/12/04 11:28:23;;;;;;;35.47;17.65;;;;;;;;;;5024913;28;20033;-57
2022/12/04 11:30:50;;;;;;;39.97;19.27;;;;;;;;;;5026878;28;20112;-57
2022/12/04 11:33:18;;;;;;;35.42;16.88;;;;;;;;;;5035962;28;20024;-58
2022/12/04 11:35:49;;;;;;;36.78;16.52;;;;;;;;;;5017717;28;20026;-58
2022/12/04 11:38:15;;;;;;;36.08;17.52;;;;;;;;;;5016672;28;20022;-58
2022/12/04 11:40:51;;;;;;;35.38;17.60;;;;;;;;;;5026330;28;20021;-59
2022/12/04 11:43:17;;;;;;;36.80;18.00;;;;;;;;;;5027212;28;20422;-59
2022/12/04 11:45:55;;;;;;;37.63;17.88;;;;;;;;;;5019993;28;20108;-58
2022/12/04 11:48:21;;;;;;;;;;;;;;;;;;5011384;28;20022;-57
2022/12/04 11:51:05;;;;;;;34.92;17.58;;;;;;;;;;5019363;28;19932;-58
2022/12/04 11:53:46;;;;;;;34.70;16.75;;;;;;;;;;5011185;28;20056;-57
2022/12/04 11:56:23;;;;;;;36.28;16.90;;;;;;;;;;5026866;28;20641;-58
2022/12/04 11:58:57;;;;;;;36.08;16.92;;;;;;;;;;5030350;28;20512;-58
2022/12/04 12:01:41;;;;;;;38.40;18.63;;;;;;;;;;5029806;28;20025;-57
2022/12/04 12:04:06;;;;;;;31.63;16.17;;;;;;;;;;5017318;28;20117;-58
2022/12/04 12:06:34;;;;;;;37.50;18.25;;;;;;;;;;5026970;28;20087;-58
2022/12/04 12:09:09;;;;;;;33.15;16.77;;;;;;;;;;5028118;28;20022;-58
2022/12/04 12:11:39;;;;;;;34.58;18.10;;;;;;;;;;5029681;28;20056;-58
2022/12/04 12:14:05;;;;;;;39.88;19.75;;;;;;;;;;5029625;28;20025;-58
2022/12/04 12:16:54;;;;;;;36.72;17.85;;;;;;;;;;5027738;28;20034;-58
2022/12/04 12:19:43;;;;;;;36.60;17.35;;;;;;;;;;5029597;28;20079;-58
2022/12/04 12:22:25;;;;;;;44.63;20.15;;;;;;;;;;5028758;28;20396;-58
2022/12/04 12:25:08;;;;;;;34.58;16.42;;;;;;;;;;5029221;28;20021;-58
2022/12/04 12:27:34;;;;;;;39.97;18.83;;;;;;;;;;5029015;28;20032;-58
2022/12/04 12:30:05;;;;;;;39.88;17.98;;;;;;;;;;5029498;28;20029;-57
2022/12/04 12:32:57;;;;;;;39.03;19.02;;;;;;;;;;5031110;28;20021;-59
2022/12/04 12:35:40;;;;;;;38.00;17.92;;;;;;;;;;5030317;28;20029;-58
2022/12/04 12:38:17;;;;;;;38.00;17.90;;;;;;;;;;5031386;28;20048;-57
2022/12/04 12:40:46;;;;;;;38.17;18.40;;;;;;;;;;5026231;28;20064;-60
2022/12/04 12:43:15;;;;;;;34.90;16.70;;;;;;;;;;5017756;28;20021;-58
2022/12/04 12:45:48;;;;;;;35.90;17.67;;;;;;;;;;5028547;28;20417;-58
2022/12/04 12:48:32;;;;;;;36.40;17.00;;;;;;;;;;5029507;28;20056;-58
2022/12/04 12:51:15;;;;;;;33.80;17.15;;;;;;;;;;5027212;28;20029;-64
2022/12/04 12:53:44;;;;;;;35.85;17.55;;;;;;;;;;5027108;28;20057;-57
2022/12/04 12:56:10;;;;;;;38.42;18.60;;;;;;;;;;5029472;28;20040;-57
2022/12/04 12:58:38;;;;;;;33.53;16.35;;;;;;;;;;5032309;28;20474;-57
2022/12/04 13:01:14;;;;;;;35.80;17.67;;;;;;;;;;5031687;28;20025;-57
2022/12/04 13:03:43;;;;;;;35.47;16.85;;;;;;;;;;5027149;28;20132;-57
2022/12/04 13:06:13;;;;;;;33.67;16.23;;;;;;;;;;5024044;28;20086;-58
2022/12/04 13:08:41;;;;;;;33.67;16.52;;;;;;;;;;5010502;28;20018;-58
2022/12/04 13:11:14;;;;;;;32.58;17.02;;;;;;;;;;5008108;28;20022;-58
2022/12/04 13:13:43;;;;;;;27.65;15.00;;;;;;;;;;5009014;28;20488;-57
2022/12/04 13:16:11;;;;;;;32.05;15.75;;;;;;;;;;5012816;28;20044;-58
2022/12/04 13:18:40;;;;;;;31.88;15.75;;;;;;;;;;5021071;28;20028;-58
2022/12/04 13:21:07;;;;;;;33.75;15.77;;;;;;;;;;5017303;28;20034;-57
2022/12/04 13:23:32;;;;;;;31.15;15.57;;;;;;;;;;5020484;28;20029;-57
2022/12/04 13:26:02;;;;;;;30.95;14.70;;;;;;;;;;5024791;28;20288;-57
2022/12/04 13:28:32;;;;;;;30.98;16.23;;;;;;;;;;5014533;28;20448;-58
2022/12/04 13:31:09;;;;;;;32.10;16.00;;;;;;;;;;5023421;28;20129;-57
2022/12/04 13:33:40;;;;;;;31.90;16.23;;;;;;;;;;5017877;28;20116;-56
2022/12/04 13:36:06;;;;;;;30.15;14.68;;;;;;;;;;5021211;28;20061;-57
2022/12/04 13:38:37;;;;;;;29.13;14.87;;;;;;;;;;5027470;28;20068;-57
2022/12/04 13:41:07;;;;;;;30.77;15.70;;;;;;;;;;5014373;28;20021;-57
2022/12/04 13:43:43;;;;;;;30.35;15.00;;;;;;;;;;5028574;28;20098;-57
2022/12/04 13:46:28;;;;;;;30.00;15.60;;;;;;;;;;5027318;28;20040;-57
2022/12/04 13:48:54;;;;;;;31.13;16.23;;;;;;;;;;5026429;28;20041;-58
2022/12/04 13:51:19;;;;;;;31.25;15.65;;;;;;;;;;5018450;28;20453;-57
2022/12/04 13:53:44;;;;;;;30.90;15.60;;;;;;;;;;5021875;28;20025;-57
2022/12/04 13:56:23;;;;;;;31.10;15.30;;;;;;;;;;5026679;28;20509;-57
2022/12/04 13:58:58;;;;;;;29.27;14.57;;;;;;;;;;5013660;28;20498;-59
2022/12/04 14:01:26;;;;;;;29.42;15.07;;;;;;;;;;5028947;28;20021;-58
2022/12/04 14:03:58;;;;;;;31.48;15.40;;;;;;;;;;5018857;28;20028;-57
2022/12/04 14:06:24;;;;;;;28.42;15.05;;;;;;;;;;5009865;28;20037;-57
2022/12/04 14:08:54;;;;;;;29.27;15.82;;;;;;;;;;5012846;28;20029;-58
2022/12/04 14:11:20;;;;;;;29.40;14.27;;;;;;;;;;5017230;28;20033;-57
2022/12/04 14:13:49;;;;;;;28.53;15.10;;;;;;;;;;5012633;28;20036;-58
2022/12/04 14:16:20;;;;;;;29.08;14.98;;;;;;;;;;5015713;28;20030;-58
2022/12/04 14:18:53;;;;;;;25.80;13.98;;;;;;;;;;5027629;28;20025;-57
2022/12/04 14:21:18;;;;;;;26.50;14.73;;;;;;;;;;5024237;28;20034;-57
2022/12/04 14:23:44;;;;;;;26.63;13.17;;;;;;;;;;5026928;28;20017;-57
2022/12/04 14:26:19;;;;;;;29.33;14.80;;;;;;;;;;5014569;28;20425;-57
2022/12/04 14:28:45;;;;;;;27.40;13.15;;;;;;;;;;5010479;28;20452;-58
2022/12/04 14:31:19;;;;;;;28.37;15.50;;;;;;;;;;5026852;28;20094;-58
2022/12/04 14:33:51;;;;;;;26.88;15.07;;;;;;;;;;5017344;28;20513;-58
2022/12/04 14:36:23;;;;;;;27.48;14.95;;;;;;;;;;5017324;28;20087;-59
2022/12/04 14:38:52;;;;;;;27.83;15.02;;;;;;;;;;5024117;28;21293;-58